createdAt,value
2022-09-09T00:02:30.459Z,15.30
2022-09-09T00:05:28.526Z,13.35
2022-09-09T00:08:21.284Z,13.65
2022-09-09T00:11:13.803Z,10.00
2022-09-09T00:14:05.256Z,10.23
2022-09-09T00:16:56.683Z,12.30
2022-09-09T00:19:54.549Z,10.80
2022-09-09T00:22:51.065Z,12.38
2022-09-09T00:25:43.262Z,16.58
2022-09-09T00:28:33.195Z,9.55
2022-09-09T00:31:26.082Z,17.73
2022-09-09T00:34:14.600Z,15.52
2022-09-09T00:37:01.053Z,14.57
2022-09-09T00:39:52.976Z,18.90
2022-09-09T00:42:43.906Z,17.60
2022-09-09T00:45:55.997Z,15.48
2022-09-09T00:49:20.153Z,10.63
2022-09-09T00:52:35.970Z,13.65
2022-09-09T00:55:34.790Z,16.25
2022-09-09T00:58:20.760Z,13.82
2022-09-09T01:01:09.924Z,17.00
2022-09-09T01:04:00.509Z,12.00
2022-09-09T01:06:53.420Z,12.85
2022-09-09T01:09:52.433Z,17.75
2022-09-09T01:12:43.130Z,9.63
2022-09-09T01:15:33.954Z,12.63
2022-09-09T01:18:24.041Z,18.75
2022-09-09T01:21:26.886Z,12.48
2022-09-09T01:24:21.744Z,13.32
2022-09-09T01:27:42.110Z,13.45
2022-09-09T01:30:29.548Z,18.77
2022-09-09T01:33:19.394Z,13.73
2022-09-09T01:36:14.636Z,14.40
2022-09-09T01:39:06.730Z,13.60
2022-09-09T01:41:56.077Z,15.00
2022-09-09T01:44:45.331Z,13.52
2022-09-09T01:47:31.941Z,10.10
2022-09-09T01:50:38.222Z,16.02
2022-09-09T01:53:25.388Z,14.30
2022-09-09T01:56:25.202Z,17.95
2022-09-09T01:59:33.892Z,15.43
2022-09-09T02:02:28.196Z,18.02
2022-09-09T02:05:35.473Z,16.42
2022-09-09T02:08:38.660Z,19.95
2022-09-09T02:11:29.753Z,19.73
2022-09-09T02:14:31.631Z,17.02
2022-09-09T02:17:25.945Z,14.02
2022-09-09T02:20:30.551Z,14.10
2022-09-09T02:23:21.901Z,19.65
2022-09-09T02:26:15.852Z,14.07
2022-09-09T02:29:07.153Z,10.07
2022-09-09T02:31:57.534Z,15.65
2022-09-09T02:34:52.678Z,12.80
2022-09-09T02:37:40.687Z,11.63
2022-09-09T02:40:27.057Z,11.85
2022-09-09T02:43:19.677Z,15.48
2022-09-09T02:46:37.992Z,16.45
2022-09-09T02:49:34.045Z,14.68
2022-09-09T02:52:26.909Z,14.13
2022-09-09T02:55:37.856Z,13.60
2022-09-09T02:58:24.350Z,17.95
2022-09-09T03:01:16.691Z,18.60
2022-09-09T03:04:06.401Z,14.35
2022-09-09T03:06:52.932Z,18.20
2022-09-09T03:09:41.157Z,14.48
2022-09-09T03:15:24.911Z,13.15
2022-09-09T03:18:10.920Z,14.13
2022-09-09T03:20:56.891Z,13.18
2022-09-09T03:23:43.628Z,13.52
2022-09-09T03:26:30.210Z,12.18
2022-09-09T03:29:18.309Z,13.93
2022-09-09T03:32:04.754Z,12.48
2022-09-09T03:34:51.226Z,23.45
2022-09-09T03:37:39.717Z,14.15
2022-09-09T03:40:26.004Z,19.00
2022-09-09T03:43:13.355Z,14.50
2022-09-09T03:45:59.785Z,13.35
2022-09-09T03:48:47.386Z,13.43
2022-09-09T03:51:37.742Z,17.20
2022-09-09T03:54:25.762Z,25.40
2022-09-09T03:57:12.039Z,10.98
2022-09-09T03:59:59.004Z,17.00
2022-09-09T04:02:45.318Z,12.25
2022-09-09T04:05:35.033Z,17.15
2022-09-09T04:08:21.993Z,15.07
2022-09-09T04:11:10.901Z,14.88
2022-09-09T04:13:58.543Z,15.63
2022-09-09T04:16:45.557Z,14.02
2022-09-09T04:19:32.429Z,16.52
2022-09-09T04:22:19.163Z,12.10
2022-09-09T04:25:07.589Z,16.77
2022-09-09T04:27:59.110Z,16.15
2022-09-09T04:30:47.246Z,16.70
2022-09-09T04:33:36.996Z,13.73
2022-09-09T04:36:25.853Z,12.77
2022-09-09T04:39:16.877Z,12.98
2022-09-09T04:42:04.220Z,18.80
2022-09-09T04:44:50.599Z,18.60
2022-09-09T04:47:37.466Z,14.68
2022-09-09T04:50:23.771Z,14.20
2022-09-09T04:53:18.244Z,12.13
2022-09-09T04:56:13.913Z,15.10
2022-09-09T04:59:18.271Z,14.20
2022-09-09T05:02:08.245Z,17.00
2022-09-09T05:04:55.004Z,11.88
2022-09-09T05:07:41.284Z,11.45
2022-09-09T05:10:27.255Z,12.57
2022-09-09T05:13:14.049Z,18.35
2022-09-09T05:15:59.950Z,14.07
2022-09-09T05:18:47.108Z,12.07
2022-09-09T05:21:33.940Z,15.68
2022-09-09T05:24:20.508Z,10.80
2022-09-09T05:27:13.065Z,18.55
2022-09-09T05:29:59.618Z,15.27
2022-09-09T05:32:45.700Z,14.23
2022-09-09T05:35:33.057Z,14.00
2022-09-09T05:38:19.512Z,15.82
2022-09-09T05:41:06.583Z,17.77
2022-09-09T05:43:52.437Z,19.02
2022-09-09T05:46:39.373Z,26.05
2022-09-09T05:49:27.578Z,19.02
2022-09-09T05:52:13.489Z,21.58
2022-09-09T05:55:00.197Z,20.10
2022-09-09T05:57:50.259Z,16.90
2022-09-09T06:00:36.485Z,20.55
2022-09-09T06:03:24.538Z,20.58
2022-09-09T06:06:13.476Z,17.48
2022-09-09T06:08:59.973Z,21.95
2022-09-09T06:11:58.783Z,15.30
2022-09-09T06:14:46.577Z,17.02
2022-09-09T06:17:34.637Z,14.82
2022-09-09T06:20:21.099Z,21.83
2022-09-09T06:23:07.582Z,20.92
2022-09-09T06:26:10.238Z,16.00
2022-09-09T06:28:58.269Z,19.67
2022-09-09T06:31:44.912Z,22.02
2022-09-09T06:34:37.584Z,20.13
2022-09-09T06:37:25.086Z,18.70
2022-09-09T06:40:12.053Z,17.20
2022-09-09T06:43:01.955Z,22.33
2022-09-09T06:45:57.223Z,14.23
2022-09-09T06:48:45.471Z,19.60
2022-09-09T06:51:37.186Z,19.48
2022-09-09T06:54:26.294Z,16.55
2022-09-09T06:57:36.061Z,12.85
2022-09-09T07:00:21.209Z,13.13
2022-09-09T07:03:07.193Z,18.77
2022-09-09T07:05:57.763Z,14.77
2022-09-09T07:08:56.427Z,15.18
2022-09-09T07:11:49.091Z,14.15
2022-09-09T07:14:38.519Z,11.00
2022-09-09T07:17:29.209Z,14.27
2022-09-09T07:20:16.619Z,14.90
2022-09-09T07:23:06.397Z,11.07
2022-09-09T07:25:53.785Z,11.77
2022-09-09T07:28:42.304Z,15.80
2022-09-09T07:31:34.259Z,14.15
2022-09-09T07:34:20.904Z,11.38
2022-09-09T07:37:07.473Z,10.20
2022-09-09T07:39:54.685Z,13.70
2022-09-09T07:42:41.132Z,13.02
2022-09-09T07:45:32.394Z,10.82
2022-09-09T07:48:18.231Z,9.88
2022-09-09T07:51:09.110Z,13.13
2022-09-09T07:54:02.856Z,12.70
2022-09-09T07:56:50.391Z,15.60
2022-09-09T07:59:36.644Z,11.45
2022-09-09T08:02:24.769Z,14.30
2022-09-09T08:05:11.417Z,12.00
2022-09-09T08:08:01.310Z,15.27
2022-09-09T08:10:47.619Z,12.52
2022-09-09T08:13:38.846Z,12.35
2022-09-09T08:16:28.258Z,14.02
2022-09-09T08:19:16.438Z,13.05
2022-09-09T08:22:04.220Z,11.43
2022-09-09T08:24:53.103Z,11.77
2022-09-09T08:27:39.671Z,14.05
2022-09-09T08:30:26.231Z,14.70
2022-09-09T08:33:12.319Z,8.88
2022-09-09T08:35:58.212Z,11.30
2022-09-09T08:38:47.786Z,10.23
2022-09-09T08:42:27.538Z,9.35
2022-09-09T08:45:44.305Z,15.93
2022-09-09T08:48:59.109Z,9.73
2022-09-09T08:51:44.935Z,12.20
2022-09-09T08:54:51.585Z,10.15
2022-09-09T08:57:41.283Z,8.38
2022-09-09T09:00:43.625Z,10.27
2022-09-09T09:03:54.157Z,9.95
2022-09-09T09:07:05.835Z,9.63
2022-09-09T09:10:03.355Z,8.65
2022-09-09T09:12:55.096Z,12.68
2022-09-09T09:15:44.955Z,9.32
2022-09-09T09:18:32.412Z,10.43
2022-09-09T09:21:45.896Z,8.57
2022-09-09T09:25:00.229Z,9.88
2022-09-09T09:28:01.551Z,10.07
2022-09-09T09:31:10.117Z,8.52
2022-09-09T09:33:59.164Z,8.82
2022-09-09T09:36:57.958Z,10.30
2022-09-09T09:40:03.043Z,11.88
2022-09-09T09:43:00.354Z,11.52
2022-09-09T09:46:06.963Z,13.35
2022-09-09T09:49:06.380Z,13.50
2022-09-09T09:51:53.567Z,13.18
2022-09-09T09:54:43.061Z,12.07
2022-09-09T09:57:34.500Z,12.68
2022-09-09T10:00:26.616Z,10.73
2022-09-09T10:03:25.816Z,15.43
2022-09-09T10:06:13.517Z,13.40
2022-09-09T10:09:00.634Z,12.27
2022-09-09T10:12:15.397Z,12.18
2022-09-09T10:15:33.179Z,13.77
2022-09-09T10:18:37.395Z,12.88
2022-09-09T10:24:30.915Z,13.70
2022-09-09T10:27:48.078Z,15.45
2022-09-09T10:31:08.232Z,12.98
2022-09-09T10:34:07.358Z,17.02
2022-09-09T10:36:53.657Z,19.40
2022-09-09T10:39:43.751Z,18.85
2022-09-09T10:42:33.336Z,19.83
2022-09-09T10:45:44.203Z,20.08
2022-09-09T10:48:55.945Z,16.70
2022-09-09T10:52:11.933Z,17.75
2022-09-09T10:55:11.238Z,17.02
2022-09-09T10:58:01.028Z,18.98
2022-09-09T11:00:59.587Z,12.55
2022-09-09T11:03:53.520Z,14.27
2022-09-09T11:06:47.401Z,17.67
2022-09-09T11:09:54.275Z,14.70
2022-09-09T11:15:55.936Z,18.83
2022-09-09T11:18:46.634Z,13.70
2022-09-09T11:21:38.677Z,13.93
2022-09-09T11:24:37.362Z,14.75
2022-09-09T11:27:44.358Z,13.02
2022-09-09T11:30:56.040Z,10.50
2022-09-09T11:33:59.554Z,12.68
2022-09-09T11:37:01.242Z,9.23
2022-09-09T11:39:53.536Z,7.82
2022-09-09T11:42:40.337Z,8.57
2022-09-09T11:45:29.755Z,8.95
2022-09-09T11:48:33.470Z,10.85
2022-09-09T11:51:22.414Z,5.72
2022-09-09T11:54:36.014Z,6.88
2022-09-09T11:57:48.917Z,9.87
2022-09-09T12:00:45.395Z,8.15
2022-09-09T12:03:37.062Z,6.57
2022-09-09T12:06:32.990Z,7.35
2022-09-09T12:09:53.716Z,7.25
2022-09-09T12:12:43.907Z,7.22
2022-09-09T12:15:30.754Z,9.50
2022-09-09T12:18:42.423Z,6.60
2022-09-09T12:21:55.736Z,7.80
2022-09-09T12:24:53.054Z,7.90
2022-09-09T12:28:10.841Z,6.55
2022-09-09T12:31:05.961Z,6.47
2022-09-09T12:33:53.813Z,8.25
2022-09-09T12:36:42.203Z,8.30
2022-09-09T12:39:37.503Z,7.40
2022-09-09T12:42:25.496Z,6.47
2022-09-09T12:45:21.495Z,7.45
2022-09-09T12:48:10.415Z,5.30
2022-09-09T12:50:57.259Z,7.72
2022-09-09T12:53:43.424Z,8.32
2022-09-09T12:56:32.314Z,6.65
2022-09-09T12:59:38.904Z,6.03
2022-09-09T13:02:31.465Z,7.50
2022-09-09T13:05:37.760Z,7.40
2022-09-09T13:08:23.834Z,9.30
2022-09-09T13:11:17.950Z,5.63
2022-09-09T13:17:01.866Z,5.53
2022-09-09T13:19:48.440Z,5.57
2022-09-09T13:22:39.819Z,7.00
2022-09-09T13:25:28.625Z,5.15
2022-09-09T13:28:26.922Z,7.07
2022-09-09T13:31:30.920Z,5.47
2022-09-09T13:34:32.500Z,5.40
2022-09-09T13:37:38.252Z,6.82
2022-09-09T13:40:25.433Z,6.15
2022-09-09T13:43:22.241Z,5.00
2022-09-09T13:46:23.803Z,5.85
2022-09-09T13:49:12.510Z,6.10
2022-09-09T13:52:12.889Z,6.22
2022-09-09T13:55:00.389Z,5.15
2022-09-09T13:58:00.165Z,9.95
2022-09-09T14:00:47.746Z,10.63
2022-09-09T14:03:34.886Z,7.82
2022-09-09T14:06:22.842Z,8.70
2022-09-09T14:09:13.430Z,6.90
2022-09-09T14:12:00.687Z,5.70
2022-09-09T14:14:46.489Z,7.07
2022-09-09T14:17:32.755Z,6.05
2022-09-09T14:20:20.197Z,6.45
2022-09-09T14:23:07.530Z,29.42
2022-09-09T14:25:53.494Z,6.43
2022-09-09T14:28:56.731Z,5.85
2022-09-09T14:31:43.048Z,7.60
2022-09-09T14:34:29.142Z,4.20
2022-09-09T14:37:15.297Z,4.30
2022-09-09T14:40:01.261Z,6.60
2022-09-09T14:42:47.545Z,6.80
2022-09-09T14:45:33.597Z,5.13
2022-09-09T14:48:20.103Z,4.55
2022-09-09T14:51:11.248Z,5.00
2022-09-09T14:54:02.718Z,6.90
2022-09-09T14:56:48.736Z,5.07
2022-09-09T14:59:35.472Z,6.95
2022-09-09T15:02:21.300Z,7.65
2022-09-09T15:05:07.492Z,9.40
2022-09-09T15:07:53.496Z,5.07
2022-09-09T15:10:42.018Z,5.45
2022-09-09T15:13:28.117Z,4.05
2022-09-09T15:16:19.050Z,6.60
2022-09-09T15:19:05.319Z,3.58
2022-09-09T15:21:51.518Z,5.10
2022-09-09T15:24:37.753Z,3.97
2022-09-09T15:27:24.822Z,6.70
2022-09-09T15:30:11.760Z,5.07
2022-09-09T15:32:58.022Z,5.68
2022-09-09T15:35:43.990Z,3.97
2022-09-09T15:38:32.471Z,5.45
2022-09-09T15:41:20.776Z,3.30
2022-09-09T15:44:07.162Z,3.72
2022-09-09T15:46:54.702Z,5.28
2022-09-09T15:49:40.732Z,4.85
2022-09-09T15:52:26.739Z,3.38
2022-09-09T15:55:12.775Z,5.10
2022-09-09T15:57:58.744Z,5.75
2022-09-09T16:00:46.584Z,3.08
2022-09-09T16:03:41.630Z,6.18
2022-09-09T16:06:31.600Z,7.28
2022-09-09T16:09:17.908Z,4.85
2022-09-09T16:12:08.781Z,4.68
2022-09-09T16:14:55.829Z,4.68
2022-09-09T16:17:41.678Z,8.88
2022-09-09T16:20:27.685Z,17.52
2022-09-09T16:23:13.763Z,11.05
2022-09-09T16:26:03.689Z,6.63
2022-09-09T16:28:51.653Z,5.45
2022-09-09T16:31:38.749Z,5.10
2022-09-09T16:34:26.231Z,5.85
2022-09-09T16:37:12.233Z,7.25
2022-09-09T16:39:58.426Z,7.53
2022-09-09T16:42:47.190Z,8.40
2022-09-09T16:45:33.732Z,10.25
2022-09-09T16:48:20.561Z,11.98
2022-09-09T16:51:11.583Z,7.82
2022-09-09T16:54:00.429Z,10.65
2022-09-09T16:56:48.789Z,11.68
2022-09-09T16:59:35.017Z,9.77
2022-09-09T17:02:21.207Z,11.68
2022-09-09T17:05:07.803Z,10.52
2022-09-09T17:07:58.349Z,15.13
2022-09-09T17:10:44.402Z,7.93
2022-09-09T17:13:31.141Z,8.50
2022-09-09T17:16:19.776Z,12.00
2022-09-09T17:19:05.992Z,10.88
2022-09-09T17:22:15.628Z,12.30
2022-09-09T17:24:58.423Z,11.75
2022-09-09T17:27:45.090Z,10.73
2022-09-09T17:30:35.022Z,11.63
2022-09-09T17:33:21.740Z,10.95
2022-09-09T17:36:09.899Z,13.35
2022-09-09T17:38:57.002Z,14.45
2022-09-09T17:41:42.926Z,16.00
2022-09-09T17:44:29.743Z,16.48
2022-09-09T17:47:15.597Z,17.52
2022-09-09T17:50:02.139Z,18.35
2022-09-09T17:52:48.106Z,18.95
2022-09-09T17:55:34.209Z,21.92
2022-09-09T17:58:22.383Z,20.17
2022-09-09T18:01:12.630Z,20.13
2022-09-09T18:04:02.097Z,15.85
2022-09-09T18:06:51.703Z,18.63
2022-09-09T18:09:39.021Z,15.05
2022-09-09T18:12:25.310Z,15.65
2022-09-09T18:15:12.705Z,15.90
2022-09-09T18:18:02.469Z,13.07
2022-09-09T18:21:09.066Z,17.15
2022-09-09T18:23:54.973Z,12.27
2022-09-09T18:26:42.007Z,17.08
2022-09-09T18:29:28.339Z,14.15
2022-09-09T18:32:15.096Z,14.93
2022-09-09T18:35:01.583Z,12.15
2022-09-09T18:37:48.410Z,11.20
2022-09-09T18:40:34.313Z,15.50
2022-09-09T18:43:20.420Z,12.30
2022-09-09T18:46:06.769Z,10.50
2022-09-09T18:48:53.351Z,16.88
2022-09-09T18:51:41.243Z,11.90
2022-09-09T18:54:30.410Z,12.63
2022-09-09T18:57:16.610Z,14.27
2022-09-09T19:00:03.936Z,14.68
2022-09-09T19:02:53.193Z,10.80
2022-09-09T19:05:42.540Z,13.55
2022-09-09T19:08:28.869Z,12.43
2022-09-09T19:11:19.101Z,15.55
2022-09-09T19:14:10.588Z,14.30
2022-09-09T19:16:56.903Z,16.05
2022-09-09T19:19:43.669Z,16.38
2022-09-09T19:22:32.232Z,19.25
2022-09-09T19:25:21.111Z,15.77
2022-09-09T19:28:09.983Z,12.77
2022-09-09T19:30:56.403Z,14.18
2022-09-09T19:33:47.125Z,14.77
2022-09-09T19:36:33.324Z,14.73
2022-09-09T19:39:21.568Z,16.08
2022-09-09T19:42:07.624Z,17.30
2022-09-09T19:44:53.645Z,16.02
2022-09-09T19:47:39.727Z,19.60
2022-09-09T19:50:26.049Z,16.40
2022-09-09T19:53:12.281Z,16.08
2022-09-09T19:55:58.705Z,18.88
2022-09-09T19:58:47.544Z,20.13
2022-09-09T20:01:40.920Z,18.63
2022-09-09T20:04:27.560Z,22.90
2022-09-09T20:07:13.528Z,12.55
2022-09-09T20:09:59.369Z,12.95
2022-09-09T20:12:45.236Z,18.58
2022-09-09T20:15:31.198Z,12.27
2022-09-09T20:18:17.241Z,13.85
2022-09-09T20:21:14.277Z,12.93
2022-09-09T20:24:02.475Z,12.77
2022-09-09T20:26:49.092Z,11.73
2022-09-09T20:29:36.401Z,12.70
2022-09-09T20:32:22.380Z,11.15
2022-09-09T20:35:08.426Z,15.98
2022-09-09T20:37:54.682Z,18.70
2022-09-09T20:40:43.806Z,12.00
2022-09-09T20:43:32.734Z,11.75
2022-09-09T20:46:20.820Z,10.25
2022-09-09T20:49:08.185Z,9.15
2022-09-09T20:51:55.081Z,11.43
2022-09-09T20:54:41.820Z,7.25
2022-09-09T20:57:27.937Z,9.90
2022-09-09T21:00:14.936Z,8.40
2022-09-09T21:03:02.347Z,9.32
2022-09-09T21:05:48.694Z,11.55
2022-09-09T21:08:36.493Z,8.43
2022-09-09T21:11:22.369Z,13.13
2022-09-09T21:14:08.386Z,11.15
2022-09-09T21:16:54.535Z,13.45
2022-09-09T21:19:41.203Z,18.65
2022-09-09T21:22:27.075Z,11.18
2022-09-09T21:25:13.057Z,12.55
2022-09-09T21:27:59.153Z,10.60
2022-09-09T21:30:49.329Z,12.52
2022-09-09T21:33:35.397Z,9.77
2022-09-09T21:36:21.211Z,12.68
2022-09-09T21:39:07.013Z,17.38
2022-09-09T21:41:53.012Z,10.15
2022-09-09T21:44:40.431Z,11.07
2022-09-09T21:47:26.390Z,14.20
2022-09-09T21:50:12.525Z,10.60
2022-09-09T21:52:58.637Z,15.50
2022-09-09T21:55:47.706Z,11.77
2022-09-09T21:58:34.864Z,16.05
2022-09-09T22:01:21.184Z,10.27
2022-09-09T22:04:07.081Z,12.95
2022-09-09T22:06:52.957Z,16.73
2022-09-09T22:09:38.905Z,14.98
2022-09-09T22:12:25.264Z,13.05
2022-09-09T22:15:11.099Z,13.27
2022-09-09T22:17:58.687Z,11.65
2022-09-09T22:20:45.484Z,13.30
2022-09-09T22:23:31.783Z,15.02
2022-09-09T22:26:17.963Z,14.38
2022-09-09T22:29:04.949Z,14.07
2022-09-09T22:31:53.179Z,12.93
2022-09-09T22:34:39.169Z,16.02
2022-09-09T22:37:26.224Z,17.17
2022-09-09T22:40:14.072Z,14.27
2022-09-09T22:43:00.105Z,17.50
2022-09-09T22:45:46.582Z,19.50
2022-09-09T22:48:34.390Z,18.48
2022-09-09T22:51:20.270Z,17.65
2022-09-09T22:54:07.483Z,20.70
2022-09-09T22:56:53.847Z,17.27
2022-09-09T22:59:43.064Z,21.45
2022-09-09T23:02:29.106Z,19.15
2022-09-09T23:05:15.604Z,19.80
2022-09-09T23:08:01.749Z,18.52
2022-09-09T23:10:48.736Z,16.55
2022-09-09T23:13:37.090Z,22.33
2022-09-09T23:16:32.837Z,22.50
2022-09-09T23:19:19.921Z,20.35
2022-09-09T23:22:08.585Z,16.35
2022-09-09T23:24:55.313Z,17.10
2022-09-09T23:27:41.911Z,21.20
2022-09-09T23:30:28.332Z,19.92
2022-09-09T23:33:15.457Z,21.88
2022-09-09T23:36:03.216Z,23.98
2022-09-09T23:38:49.240Z,22.20
2022-09-09T23:41:36.750Z,19.33
2022-09-09T23:44:23.242Z,21.65
2022-09-09T23:47:09.597Z,22.63
2022-09-09T23:49:57.206Z,25.77
2022-09-09T23:52:44.073Z,21.27
2022-09-09T23:55:30.523Z,23.42
2022-09-09T23:58:16.366Z,24.27
